sensor_id;sensor_type;location;lat;lon;timestamp;P1;durP1;ratioP1;P2;durP2;ratioP2
21591;SDS011;10958;50.892;3.992;2022-11-23T00:01:20;7.22;;;1.55;;
21591;SDS011;10958;50.892;3.992;2022-11-23T00:03:48;6.53;;;2.00;;
21591;SDS011;10958;50.892;3.992;2022-11-23T00:06:18;14.75;;;2.08;;
21591;SDS011;10958;50.892;3.992;2022-11-23T00:08:45;11.15;;;2.15;;
21591;SDS011;10958;50.892;3.992;2022-11-23T00:11:11;9.52;;;1.70;;
21591;SDS011;10958;50.892;3.992;2022-11-23T00:13:38;10.25;;;2.30;;
21591;SDS011;10958;50.892;3.992;2022-11-23T00:16:09;11.88;;;2.22;;
21591;SDS011;10958;50.892;3.992;2022-11-23T00:18:43;12.65;;;2.40;;
21591;SDS011;10958;50.892;3.992;2022-11-23T00:21:13;13.93;;;2.28;;
21591;SDS011;10958;50.892;3.992;2022-11-23T00:23:40;11.95;;;1.90;;
21591;SDS011;10958;50.892;3.992;2022-11-23T00:26:07;19.15;;;2.65;;
21591;SDS011;10958;50.892;3.992;2022-11-23T00:28:33;7.18;;;1.63;;
21591;SDS011;10958;50.892;3.992;2022-11-23T00:31:02;16.73;;;2.05;;
21591;SDS011;10958;50.892;3.992;2022-11-23T00:36:00;12.05;;;2.22;;
21591;SDS011;10958;50.892;3.992;2022-11-23T00:38:28;14.70;;;2.60;;
21591;SDS011;10958;50.892;3.992;2022-11-23T00:40:57;12.10;;;1.75;;
21591;SDS011;10958;50.892;3.992;2022-11-23T00:43:24;13.32;;;2.22;;
21591;SDS011;10958;50.892;3.992;2022-11-23T00:46:00;14.65;;;1.95;;
21591;SDS011;10958;50.892;3.992;2022-11-23T00:48:30;9.60;;;2.30;;
21591;SDS011;10958;50.892;3.992;2022-11-23T00:50:55;11.23;;;2.40;;
21591;SDS011;10958;50.892;3.992;2022-11-23T00:53:21;18.38;;;2.25;;
21591;SDS011;10958;50.892;3.992;2022-11-23T00:55:51;12.80;;;2.63;;
21591;SDS011;10958;50.892;3.992;2022-11-23T00:58:17;10.23;;;1.67;;
21591;SDS011;10958;50.892;3.992;2022-11-23T01:00:43;10.57;;;1.83;;
21591;SDS011;10958;50.892;3.992;2022-11-23T01:03:09;11.02;;;1.55;;
21591;SDS011;10958;50.892;3.992;2022-11-23T01:05:36;9.45;;;2.20;;
21591;SDS011;10958;50.892;3.992;2022-11-23T01:08:02;16.83;;;2.40;;
21591;SDS011;10958;50.892;3.992;2022-11-23T01:10:29;9.68;;;1.70;;
21591;SDS011;10958;50.892;3.992;2022-11-23T01:12:55;10.50;;;1.90;;
21591;SDS011;10958;50.892;3.992;2022-11-23T01:15:22;9.07;;;1.70;;
21591;SDS011;10958;50.892;3.992;2022-11-23T01:17:50;13.07;;;2.33;;
21591;SDS011;10958;50.892;3.992;2022-11-23T01:20:16;7.63;;;1.40;;
21591;SDS011;10958;50.892;3.992;2022-11-23T01:22:41;15.88;;;3.20;;
21591;SDS011;10958;50.892;3.992;2022-11-23T01:25:07;9.68;;;1.50;;
21591;SDS011;10958;50.892;3.992;2022-11-23T01:27:33;7.20;;;1.50;;
21591;SDS011;10958;50.892;3.992;2022-11-23T01:29:59;11.15;;;2.28;;
21591;SDS011;10958;50.892;3.992;2022-11-23T01:32:25;8.40;;;1.70;;
21591;SDS011;10958;50.892;3.992;2022-11-23T01:34:51;9.52;;;1.50;;
21591;SDS011;10958;50.892;3.992;2022-11-23T01:37:16;7.32;;;1.75;;
21591;SDS011;10958;50.892;3.992;2022-11-23T01:39:42;11.90;;;2.30;;
21591;SDS011;10958;50.892;3.992;2022-11-23T01:42:11;10.82;;;2.05;;
21591;SDS011;10958;50.892;3.992;2022-11-23T01:44:37;8.40;;;1.70;;
21591;SDS011;10958;50.892;3.992;2022-11-23T01:47:04;13.73;;;1.92;;
21591;SDS011;10958;50.892;3.992;2022-11-23T01:49:34;10.30;;;1.83;;
21591;SDS011;10958;50.892;3.992;2022-11-23T01:52:08;14.38;;;2.63;;
21591;SDS011;10958;50.892;3.992;2022-11-23T01:54:38;13.70;;;2.33;;
21591;SDS011;10958;50.892;3.992;2022-11-23T01:57:30;11.73;;;1.80;;
21591;SDS011;10958;50.892;3.992;2022-11-23T02:00:04;7.90;;;1.52;;
21591;SDS011;10958;50.892;3.992;2022-11-23T02:02:32;9.70;;;2.00;;
21591;SDS011;10958;50.892;3.992;2022-11-23T02:05:00;10.55;;;1.98;;
21591;SDS011;10958;50.892;3.992;2022-11-23T02:07:26;9.40;;;1.90;;
21591;SDS011;10958;50.892;3.992;2022-11-23T02:09:57;9.15;;;1.75;;
21591;SDS011;10958;50.892;3.992;2022-11-23T02:12:23;6.57;;;1.60;;
21591;SDS011;10958;50.892;3.992;2022-11-23T02:14:49;9.90;;;2.03;;
21591;SDS011;10958;50.892;3.992;2022-11-23T02:17:14;8.05;;;1.65;;
21591;SDS011;10958;50.892;3.992;2022-11-23T02:20:02;15.07;;;2.50;;
21591;SDS011;10958;50.892;3.992;2022-11-23T02:25:18;15.52;;;2.00;;
21591;SDS011;10958;50.892;3.992;2022-11-23T02:27:55;12.18;;;1.48;;
21591;SDS011;10958;50.892;3.992;2022-11-23T02:30:21;13.95;;;1.58;;
21591;SDS011;10958;50.892;3.992;2022-11-23T02:32:49;8.80;;;1.70;;
21591;SDS011;10958;50.892;3.992;2022-11-23T02:35:15;13.93;;;1.70;;
21591;SDS011;10958;50.892;3.992;2022-11-23T02:37:41;16.48;;;2.05;;
21591;SDS011;10958;50.892;3.992;2022-11-23T02:40:22;13.02;;;2.10;;
21591;SDS011;10958;50.892;3.992;2022-11-23T02:42:53;9.25;;;1.50;;
21591;SDS011;10958;50.892;3.992;2022-11-23T02:48:09;9.90;;;1.92;;
21591;SDS011;10958;50.892;3.992;2022-11-23T02:50:35;16.58;;;1.50;;
21591;SDS011;10958;50.892;3.992;2022-11-23T02:53:01;12.90;;;2.15;;
21591;SDS011;10958;50.892;3.992;2022-11-23T02:55:26;10.07;;;2.10;;
21591;SDS011;10958;50.892;3.992;2022-11-23T02:57:55;7.45;;;1.60;;
21591;SDS011;10958;50.892;3.992;2022-11-23T03:00:20;13.45;;;2.03;;
21591;SDS011;10958;50.892;3.992;2022-11-23T03:02:46;12.50;;;2.10;;
21591;SDS011;10958;50.892;3.992;2022-11-23T03:05:12;11.50;;;2.38;;
21591;SDS011;10958;50.892;3.992;2022-11-23T03:07:37;12.63;;;1.73;;
21591;SDS011;10958;50.892;3.992;2022-11-23T03:10:06;13.93;;;1.70;;
21591;SDS011;10958;50.892;3.992;2022-11-23T03:12:32;10.80;;;2.20;;
21591;SDS011;10958;50.892;3.992;2022-11-23T03:14:58;18.52;;;2.75;;
21591;SDS011;10958;50.892;3.992;2022-11-23T03:17:24;13.18;;;2.15;;
21591;SDS011;10958;50.892;3.992;2022-11-23T03:19:52;9.80;;;2.17;;
21591;SDS011;10958;50.892;3.992;2022-11-23T03:22:18;12.20;;;2.03;;
21591;SDS011;10958;50.892;3.992;2022-11-23T03:24:44;13.18;;;2.25;;
21591;SDS011;10958;50.892;3.992;2022-11-23T03:27:12;18.10;;;2.58;;
21591;SDS011;10958;50.892;3.992;2022-11-23T03:29:39;12.98;;;1.95;;
21591;SDS011;10958;50.892;3.992;2022-11-23T03:32:04;9.05;;;1.70;;
21591;SDS011;10958;50.892;3.992;2022-11-23T03:34:32;16.48;;;2.20;;
21591;SDS011;10958;50.892;3.992;2022-11-23T03:36:58;7.82;;;1.63;;
21591;SDS011;10958;50.892;3.992;2022-11-23T03:39:24;10.07;;;1.77;;
21591;SDS011;10958;50.892;3.992;2022-11-23T03:41:50;8.00;;;2.08;;
21591;SDS011;10958;50.892;3.992;2022-11-23T03:44:16;11.98;;;2.10;;
21591;SDS011;10958;50.892;3.992;2022-11-23T03:46:41;10.73;;;1.52;;
21591;SDS011;10958;50.892;3.992;2022-11-23T03:49:09;15.97;;;2.00;;
21591;SDS011;10958;50.892;3.992;2022-11-23T03:51:35;13.85;;;2.28;;
21591;SDS011;10958;50.892;3.992;2022-11-23T03:54:01;14.02;;;2.22;;
21591;SDS011;10958;50.892;3.992;2022-11-23T03:56:28;8.77;;;2.10;;
21591;SDS011;10958;50.892;3.992;2022-11-23T03:58:54;11.13;;;1.73;;
21591;SDS011;10958;50.892;3.992;2022-11-23T04:01:23;15.93;;;2.45;;
21591;SDS011;10958;50.892;3.992;2022-11-23T04:03:48;9.25;;;2.00;;
21591;SDS011;10958;50.892;3.992;2022-11-23T04:06:16;10.93;;;2.40;;
21591;SDS011;10958;50.892;3.992;2022-11-23T04:08:42;14.95;;;2.22;;
21591;SDS011;10958;50.892;3.992;2022-11-23T04:11:09;19.52;;;2.50;;
21591;SDS011;10958;50.892;3.992;2022-11-23T04:13:35;12.48;;;2.00;;
21591;SDS011;10958;50.892;3.992;2022-11-23T04:16:02;12.25;;;2.15;;
21591;SDS011;10958;50.892;3.992;2022-11-23T04:18:27;10.80;;;2.70;;
21591;SDS011;10958;50.892;3.992;2022-11-23T04:20:53;12.65;;;2.15;;
21591;SDS011;10958;50.892;3.992;2022-11-23T04:23:19;14.75;;;2.67;;
21591;SDS011;10958;50.892;3.992;2022-11-23T04:25:44;16.65;;;2.20;;
21591;SDS011;10958;50.892;3.992;2022-11-23T04:28:10;15.02;;;2.00;;
21591;SDS011;10958;50.892;3.992;2022-11-23T04:30:36;12.88;;;2.15;;
21591;SDS011;10958;50.892;3.992;2022-11-23T04:33:04;11.77;;;1.73;;
21591;SDS011;10958;50.892;3.992;2022-11-23T04:35:30;14.52;;;2.10;;
21591;SDS011;10958;50.892;3.992;2022-11-23T04:37:55;12.15;;;2.35;;
21591;SDS011;10958;50.892;3.992;2022-11-23T04:40:21;11.70;;;2.22;;
21591;SDS011;10958;50.892;3.992;2022-11-23T04:42:47;10.88;;;1.83;;
21591;SDS011;10958;50.892;3.992;2022-11-23T04:45:15;15.05;;;2.53;;
21591;SDS011;10958;50.892;3.992;2022-11-23T04:47:41;17.17;;;2.73;;
21591;SDS011;10958;50.892;3.992;2022-11-23T04:50:06;15.20;;;2.53;;
21591;SDS011;10958;50.892;3.992;2022-11-23T04:52:32;17.55;;;2.20;;
21591;SDS011;10958;50.892;3.992;2022-11-23T04:54:58;17.23;;;2.20;;
21591;SDS011;10958;50.892;3.992;2022-11-23T04:57:23;11.40;;;1.92;;
21591;SDS011;10958;50.892;3.992;2022-11-23T04:59:49;15.20;;;2.78;;
21591;SDS011;10958;50.892;3.992;2022-11-23T05:02:16;16.67;;;1.90;;
21591;SDS011;10958;50.892;3.992;2022-11-23T05:04:41;16.38;;;2.28;;
21591;SDS011;10958;50.892;3.992;2022-11-23T05:07:07;12.57;;;1.63;;
21591;SDS011;10958;50.892;3.992;2022-11-23T05:09:35;12.05;;;1.75;;
21591;SDS011;10958;50.892;3.992;2022-11-23T05:12:01;12.70;;;2.30;;
21591;SDS011;10958;50.892;3.992;2022-11-23T05:14:27;10.82;;;2.00;;
21591;SDS011;10958;50.892;3.992;2022-11-23T05:16:52;12.90;;;1.90;;
21591;SDS011;10958;50.892;3.992;2022-11-23T05:19:18;11.70;;;2.53;;
21591;SDS011;10958;50.892;3.992;2022-11-23T05:21:44;11.27;;;2.20;;
21591;SDS011;10958;50.892;3.992;2022-11-23T05:24:10;11.25;;;1.90;;
21591;SDS011;10958;50.892;3.992;2022-11-23T05:26:36;13.75;;;2.22;;
21591;SDS011;10958;50.892;3.992;2022-11-23T05:29:01;17.45;;;2.20;;
21591;SDS011;10958;50.892;3.992;2022-11-23T05:31:27;11.73;;;2.42;;
21591;SDS011;10958;50.892;3.992;2022-11-23T05:33:55;16.35;;;2.65;;
21591;SDS011;10958;50.892;3.992;2022-11-23T05:36:21;7.47;;;1.58;;
21591;SDS011;10958;50.892;3.992;2022-11-23T05:38:46;10.60;;;2.00;;
21591;SDS011;10958;50.892;3.992;2022-11-23T05:41:12;14.23;;;2.20;;
21591;SDS011;10958;50.892;3.992;2022-11-23T05:43:38;13.27;;;2.10;;
21591;SDS011;10958;50.892;3.992;2022-11-23T05:46:03;7.68;;;1.85;;
21591;SDS011;10958;50.892;3.992;2022-11-23T05:48:29;12.50;;;2.35;;
21591;SDS011;10958;50.892;3.992;2022-11-23T05:51:00;13.40;;;2.47;;
21591;SDS011;10958;50.892;3.992;2022-11-23T05:53:25;9.52;;;2.17;;
21591;SDS011;10958;50.892;3.992;2022-11-23T05:55:51;11.75;;;2.28;;
21591;SDS011;10958;50.892;3.992;2022-11-23T05:58:17;11.57;;;2.33;;
21591;SDS011;10958;50.892;3.992;2022-11-23T06:00:42;10.35;;;1.77;;
21591;SDS011;10958;50.892;3.992;2022-11-23T06:03:08;12.57;;;2.28;;
21591;SDS011;10958;50.892;3.992;2022-11-23T06:05:34;13.95;;;2.55;;
21591;SDS011;10958;50.892;3.992;2022-11-23T06:07:59;13.68;;;2.13;;
21591;SDS011;10958;50.892;3.992;2022-11-23T06:10:25;9.70;;;2.22;;
21591;SDS011;10958;50.892;3.992;2022-11-23T06:12:53;9.40;;;2.22;;
21591;SDS011;10958;50.892;3.992;2022-11-23T06:15:19;19.25;;;2.50;;
21591;SDS011;10958;50.892;3.992;2022-11-23T06:17:44;10.48;;;2.22;;
21591;SDS011;10958;50.892;3.992;2022-11-23T06:20:10;16.25;;;2.15;;
21591;SDS011;10958;50.892;3.992;2022-11-23T06:22:36;11.65;;;2.50;;
21591;SDS011;10958;50.892;3.992;2022-11-23T06:25:01;17.67;;;3.00;;
21591;SDS011;10958;50.892;3.992;2022-11-23T06:27:27;11.02;;;2.53;;
21591;SDS011;10958;50.892;3.992;2022-11-23T06:29:53;15.98;;;2.67;;
21591;SDS011;10958;50.892;3.992;2022-11-23T06:32:19;18.75;;;2.65;;
21591;SDS011;10958;50.892;3.992;2022-11-23T06:34:44;15.02;;;2.60;;
21591;SDS011;10958;50.892;3.992;2022-11-23T06:37:14;15.60;;;2.63;;
21591;SDS011;10958;50.892;3.992;2022-11-23T06:39:40;17.38;;;3.80;;
21591;SDS011;10958;50.892;3.992;2022-11-23T06:42:05;12.52;;;2.40;;
21591;SDS011;10958;50.892;3.992;2022-11-23T06:44:31;17.17;;;2.92;;
21591;SDS011;10958;50.892;3.992;2022-11-23T06:46:57;13.45;;;2.38;;
21591;SDS011;10958;50.892;3.992;2022-11-23T06:49:22;17.10;;;2.58;;
21591;SDS011;10958;50.892;3.992;2022-11-23T06:51:49;15.20;;;2.58;;
21591;SDS011;10958;50.892;3.992;2022-11-23T06:54:15;13.32;;;2.60;;
21591;SDS011;10958;50.892;3.992;2022-11-23T06:56:41;13.98;;;2.15;;
21591;SDS011;10958;50.892;3.992;2022-11-23T06:59:09;14.52;;;3.40;;
21591;SDS011;10958;50.892;3.992;2022-11-23T07:01:37;16.90;;;2.85;;
21591;SDS011;10958;50.892;3.992;2022-11-23T07:04:05;18.65;;;2.97;;
21591;SDS011;10958;50.892;3.992;2022-11-23T07:06:31;23.75;;;4.40;;
21591;SDS011;10958;50.892;3.992;2022-11-23T07:08:57;16.05;;;2.70;;
21591;SDS011;10958;50.892;3.992;2022-11-23T07:11:23;11.90;;;2.30;;
21591;SDS011;10958;50.892;3.992;2022-11-23T07:13:49;14.48;;;3.15;;
21591;SDS011;10958;50.892;3.992;2022-11-23T07:16:14;12.90;;;2.28;;
21591;SDS011;10958;50.892;3.992;2022-11-23T07:18:40;11.13;;;2.70;;
21591;SDS011;10958;50.892;3.992;2022-11-23T07:21:08;11.70;;;3.47;;
21591;SDS011;10958;50.892;3.992;2022-11-23T07:23:34;14.52;;;3.15;;
21591;SDS011;10958;50.892;3.992;2022-11-23T07:26:04;13.20;;;3.53;;
21591;SDS011;10958;50.892;3.992;2022-11-23T07:28:30;13.93;;;3.10;;
21591;SDS011;10958;50.892;3.992;2022-11-23T07:30:59;18.77;;;3.33;;
21591;SDS011;10958;50.892;3.992;2022-11-23T07:33:27;13.57;;;2.58;;
21591;SDS011;10958;50.892;3.992;2022-11-23T07:35:53;18.67;;;2.65;;
21591;SDS011;10958;50.892;3.992;2022-11-23T07:38:22;15.35;;;3.10;;
21591;SDS011;10958;50.892;3.992;2022-11-23T07:40:48;22.83;;;2.88;;
21591;SDS011;10958;50.892;3.992;2022-11-23T07:43:16;15.35;;;2.88;;
21591;SDS011;10958;50.892;3.992;2022-11-23T07:45:42;14.00;;;3.10;;
21591;SDS011;10958;50.892;3.992;2022-11-23T07:48:08;14.70;;;3.05;;
21591;SDS011;10958;50.892;3.992;2022-11-23T07:50:34;11.02;;;3.10;;
21591;SDS011;10958;50.892;3.992;2022-11-23T07:53:01;26.50;;;3.40;;
21591;SDS011;10958;50.892;3.992;2022-11-23T07:55:29;13.25;;;2.75;;
21591;SDS011;10958;50.892;3.992;2022-11-23T07:57:55;10.75;;;2.63;;
21591;SDS011;10958;50.892;3.992;2022-11-23T08:00:22;16.98;;;3.20;;
21591;SDS011;10958;50.892;3.992;2022-11-23T08:02:49;12.40;;;2.72;;
21591;SDS011;10958;50.892;3.992;2022-11-23T08:05:18;16.50;;;2.55;;
21591;SDS011;10958;50.892;3.992;2022-11-23T08:07:44;16.23;;;3.30;;
21591;SDS011;10958;50.892;3.992;2022-11-23T08:10:11;16.63;;;3.45;;
21591;SDS011;10958;50.892;3.992;2022-11-23T08:12:37;12.13;;;2.45;;
21591;SDS011;10958;50.892;3.992;2022-11-23T08:15:04;12.48;;;3.10;;
21591;SDS011;10958;50.892;3.992;2022-11-23T08:17:30;14.52;;;2.92;;
21591;SDS011;10958;50.892;3.992;2022-11-23T08:19:58;15.88;;;2.92;;
21591;SDS011;10958;50.892;3.992;2022-11-23T08:22:26;11.25;;;2.55;;
21591;SDS011;10958;50.892;3.992;2022-11-23T08:24:52;12.32;;;2.42;;
21591;SDS011;10958;50.892;3.992;2022-11-23T08:27:18;14.90;;;3.75;;
21591;SDS011;10958;50.892;3.992;2022-11-23T08:29:44;14.57;;;3.83;;
21591;SDS011;10958;50.892;3.992;2022-11-23T08:32:10;19.30;;;3.22;;
21591;SDS011;10958;50.892;3.992;2022-11-23T08:34:36;11.02;;;2.85;;
21591;SDS011;10958;50.892;3.992;2022-11-23T08:37:03;12.65;;;2.92;;
21591;SDS011;10958;50.892;3.992;2022-11-23T08:39:28;17.35;;;2.92;;
21591;SDS011;10958;50.892;3.992;2022-11-23T08:41:56;14.18;;;2.90;;
21591;SDS011;10958;50.892;3.992;2022-11-23T08:44:22;11.27;;;1.85;;
21591;SDS011;10958;50.892;3.992;2022-11-23T08:46:48;9.48;;;2.25;;
21591;SDS011;10958;50.892;3.992;2022-11-23T08:49:14;13.20;;;2.90;;
21591;SDS011;10958;50.892;3.992;2022-11-23T08:51:40;11.35;;;3.17;;
21591;SDS011;10958;50.892;3.992;2022-11-23T08:54:10;12.10;;;3.05;;
21591;SDS011;10958;50.892;3.992;2022-11-23T08:56:35;15.93;;;2.88;;
21591;SDS011;10958;50.892;3.992;2022-11-23T08:59:02;10.38;;;2.53;;
21591;SDS011;10958;50.892;3.992;2022-11-23T09:01:28;11.15;;;2.60;;
21591;SDS011;10958;50.892;3.992;2022-11-23T09:03:54;8.50;;;2.67;;
21591;SDS011;10958;50.892;3.992;2022-11-23T09:06:19;13.80;;;2.38;;
21591;SDS011;10958;50.892;3.992;2022-11-23T09:08:50;11.77;;;2.30;;
21591;SDS011;10958;50.892;3.992;2022-11-23T09:11:19;11.60;;;2.45;;
21591;SDS011;10958;50.892;3.992;2022-11-23T09:13:47;12.23;;;2.38;;
21591;SDS011;10958;50.892;3.992;2022-11-23T09:16:13;8.30;;;2.35;;
21591;SDS011;10958;50.892;3.992;2022-11-23T09:18:38;6.93;;;2.65;;
21591;SDS011;10958;50.892;3.992;2022-11-23T09:21:04;10.93;;;2.33;;
21591;SDS011;10958;50.892;3.992;2022-11-23T09:23:32;5.40;;;2.30;;
21591;SDS011;10958;50.892;3.992;2022-11-23T09:25:58;7.50;;;2.28;;
21591;SDS011;10958;50.892;3.992;2022-11-23T09:28:25;7.20;;;2.05;;
21591;SDS011;10958;50.892;3.992;2022-11-23T09:30:52;10.05;;;2.15;;
21591;SDS011;10958;50.892;3.992;2022-11-23T09:33:21;7.45;;;2.38;;
21591;SDS011;10958;50.892;3.992;2022-11-23T09:35:58;8.00;;;2.38;;
21591;SDS011;10958;50.892;3.992;2022-11-23T09:38:25;9.55;;;2.42;;
21591;SDS011;10958;50.892;3.992;2022-11-23T09:40:58;8.30;;;2.45;;
21591;SDS011;10958;50.892;3.992;2022-11-23T09:43:39;7.25;;;2.10;;
21591;SDS011;10958;50.892;3.992;2022-11-23T09:49:17;8.30;;;2.05;;
21591;SDS011;10958;50.892;3.992;2022-11-23T09:51:48;10.35;;;2.85;;
21591;SDS011;10958;50.892;3.992;2022-11-23T09:56:46;10.70;;;2.42;;
21591;SDS011;10958;50.892;3.992;2022-11-23T10:01:56;8.95;;;1.90;;
21591;SDS011;10958;50.892;3.992;2022-11-23T10:04:22;9.35;;;2.72;;
21591;SDS011;10958;50.892;3.992;2022-11-23T10:06:53;12.02;;;2.30;;
21591;SDS011;10958;50.892;3.992;2022-11-23T10:09:42;9.38;;;2.50;;
21591;SDS011;10958;50.892;3.992;2022-11-23T10:12:34;6.97;;;2.28;;
21591;SDS011;10958;50.892;3.992;2022-11-23T10:26:16;10.85;;;2.17;;
21591;SDS011;10958;50.892;3.992;2022-11-23T10:28:46;7.18;;;1.60;;
21591;SDS011;10958;50.892;3.992;2022-11-23T10:31:14;7.40;;;1.80;;
21591;SDS011;10958;50.892;3.992;2022-11-23T10:33:48;6.60;;;2.10;;
21591;SDS011;10958;50.892;3.992;2022-11-23T10:36:39;8.60;;;1.80;;
21591;SDS011;10958;50.892;3.992;2022-11-23T10:39:39;5.68;;;1.58;;
21591;SDS011;10958;50.892;3.992;2022-11-23T10:41:59;6.93;;;2.53;;
21591;SDS011;10958;50.892;3.992;2022-11-23T10:44:32;5.63;;;1.70;;
21591;SDS011;10958;50.892;3.992;2022-11-23T10:47:07;6.15;;;2.05;;
21591;SDS011;10958;50.892;3.992;2022-11-23T10:49:55;12.10;;;2.65;;
21591;SDS011;10958;50.892;3.992;2022-11-23T10:52:29;9.85;;;1.90;;
21591;SDS011;10958;50.892;3.992;2022-11-23T10:54:57;8.07;;;1.80;;
21591;SDS011;10958;50.892;3.992;2022-11-23T10:57:30;4.85;;;1.65;;
21591;SDS011;10958;50.892;3.992;2022-11-23T11:03:33;12.82;;;2.10;;
21591;SDS011;10958;50.892;3.992;2022-11-23T11:06:00;5.95;;;1.80;;
21591;SDS011;10958;50.892;3.992;2022-11-23T11:08:30;7.60;;;2.22;;
21591;SDS011;10958;50.892;3.992;2022-11-23T11:11:00;6.05;;;2.15;;
21591;SDS011;10958;50.892;3.992;2022-11-23T11:16:20;6.68;;;1.90;;
21591;SDS011;10958;50.892;3.992;2022-11-23T11:18:48;9.40;;;1.98;;
21591;SDS011;10958;50.892;3.992;2022-11-23T11:21:19;6.75;;;1.85;;
21591;SDS011;10958;50.892;3.992;2022-11-23T11:23:49;4.90;;;2.03;;
21591;SDS011;10958;50.892;3.992;2022-11-23T11:26:27;7.78;;;2.05;;
21591;SDS011;10958;50.892;3.992;2022-11-23T11:28:55;7.68;;;1.75;;
21591;SDS011;10958;50.892;3.992;2022-11-23T11:36:58;7.75;;;1.60;;
21591;SDS011;10958;50.892;3.992;2022-11-23T11:42:14;6.72;;;1.98;;
21591;SDS011;10958;50.892;3.992;2022-11-23T11:44:43;5.60;;;1.40;;
21591;SDS011;10958;50.892;3.992;2022-11-23T11:47:17;8.27;;;1.67;;
21591;SDS011;10958;50.892;3.992;2022-11-23T11:49:51;6.68;;;1.45;;
21591;SDS011;10958;50.892;3.992;2022-11-23T11:52:27;5.53;;;1.30;;
21591;SDS011;10958;50.892;3.992;2022-11-23T11:55:04;9.25;;;1.40;;
21591;SDS011;10958;50.892;3.992;2022-11-23T11:57:50;9.52;;;1.70;;
21591;SDS011;10958;50.892;3.992;2022-11-23T12:00:27;8.48;;;1.50;;
21591;SDS011;10958;50.892;3.992;2022-11-23T12:05:47;6.88;;;1.67;;
21591;SDS011;10958;50.892;3.992;2022-11-23T12:09:02;6.40;;;1.77;;
21591;SDS011;10958;50.892;3.992;2022-11-23T12:11:22;7.10;;;1.70;;
21591;SDS011;10958;50.892;3.992;2022-11-23T12:13:47;5.00;;;1.50;;
21591;SDS011;10958;50.892;3.992;2022-11-23T12:19:11;8.90;;;2.22;;
21591;SDS011;10958;50.892;3.992;2022-11-23T12:24:47;4.80;;;1.85;;
21591;SDS011;10958;50.892;3.992;2022-11-23T12:30:25;4.20;;;1.70;;
21591;SDS011;10958;50.892;3.992;2022-11-23T12:38:28;5.53;;;2.80;;
21591;SDS011;10958;50.892;3.992;2022-11-23T12:43:50;5.15;;;1.65;;
21591;SDS011;10958;50.892;3.992;2022-11-23T12:51:58;4.88;;;1.60;;
21591;SDS011;10958;50.892;3.992;2022-11-23T12:54:52;5.28;;;1.52;;
21591;SDS011;10958;50.892;3.992;2022-11-23T12:57:48;5.63;;;1.65;;
21591;SDS011;10958;50.892;3.992;2022-11-23T13:00:14;5.15;;;1.58;;
21591;SDS011;10958;50.892;3.992;2022-11-23T13:13:44;3.38;;;1.50;;
21591;SDS011;10958;50.892;3.992;2022-11-23T13:21:52;3.90;;;1.60;;
21591;SDS011;10958;50.892;3.992;2022-11-23T13:27:43;6.65;;;3.47;;
21591;SDS011;10958;50.892;3.992;2022-11-23T13:29:56;5.38;;;1.73;;
21591;SDS011;10958;50.892;3.992;2022-11-23T13:40:33;8.57;;;4.32;;
21591;SDS011;10958;50.892;3.992;2022-11-23T13:43:02;7.45;;;3.75;;
21591;SDS011;10958;50.892;3.992;2022-11-23T13:45:41;8.95;;;4.82;;
21591;SDS011;10958;50.892;3.992;2022-11-23T13:50:34;8.48;;;3.45;;
21591;SDS011;10958;50.892;3.992;2022-11-23T13:53:17;13.23;;;7.60;;
21591;SDS011;10958;50.892;3.992;2022-11-23T13:55:52;4.90;;;2.20;;
21591;SDS011;10958;50.892;3.992;2022-11-23T14:06:18;6.13;;;1.60;;
21591;SDS011;10958;50.892;3.992;2022-11-23T14:23:01;3.58;;;1.80;;
21591;SDS011;10958;50.892;3.992;2022-11-23T14:25:41;3.40;;;2.10;;
21591;SDS011;10958;50.892;3.992;2022-11-23T14:28:26;3.83;;;1.83;;
21591;SDS011;10958;50.892;3.992;2022-11-23T14:36:47;3.45;;;2.00;;
21591;SDS011;10958;50.892;3.992;2022-11-23T14:41:48;6.70;;;3.35;;
21591;SDS011;10958;50.892;3.992;2022-11-23T14:44:18;6.57;;;3.25;;
21591;SDS011;10958;50.892;3.992;2022-11-23T14:47:00;3.60;;;2.22;;
21591;SDS011;10958;50.892;3.992;2022-11-23T14:49:31;4.05;;;2.03;;
21591;SDS011;10958;50.892;3.992;2022-11-23T14:51:57;3.15;;;1.45;;
21591;SDS011;10958;50.892;3.992;2022-11-23T14:54:27;3.45;;;1.85;;
21591;SDS011;10958;50.892;3.992;2022-11-23T14:57:01;5.05;;;2.78;;
21591;SDS011;10958;50.892;3.992;2022-11-23T14:59:29;5.03;;;2.10;;
21591;SDS011;10958;50.892;3.992;2022-11-23T15:02:04;4.45;;;2.22;;
21591;SDS011;10958;50.892;3.992;2022-11-23T15:04:51;4.78;;;2.80;;
21591;SDS011;10958;50.892;3.992;2022-11-23T15:07:24;4.32;;;1.60;;
21591;SDS011;10958;50.892;3.992;2022-11-23T15:10:11;5.55;;;1.75;;
21591;SDS011;10958;50.892;3.992;2022-11-23T15:12:45;3.83;;;2.17;;
21591;SDS011;10958;50.892;3.992;2022-11-23T15:17:52;2.63;;;1.63;;
21591;SDS011;10958;50.892;3.992;2022-11-23T15:20:24;5.32;;;2.05;;
21591;SDS011;10958;50.892;3.992;2022-11-23T15:22:53;5.32;;;1.90;;
21591;SDS011;10958;50.892;3.992;2022-11-23T15:25:20;3.22;;;1.77;;
21591;SDS011;10958;50.892;3.992;2022-11-23T15:27:46;3.55;;;2.10;;
21591;SDS011;10958;50.892;3.992;2022-11-23T15:30:15;3.83;;;2.40;;
21591;SDS011;10958;50.892;3.992;2022-11-23T15:32:43;4.95;;;2.63;;
21591;SDS011;10958;50.892;3.992;2022-11-23T15:35:19;8.05;;;1.90;;
21591;SDS011;10958;50.892;3.992;2022-11-23T15:37:48;5.05;;;2.50;;
21591;SDS011;10958;50.892;3.992;2022-11-23T15:40:16;8.05;;;2.33;;
21591;SDS011;10958;50.892;3.992;2022-11-23T15:42:47;3.85;;;2.10;;
21591;SDS011;10958;50.892;3.992;2022-11-23T15:45:36;5.03;;;2.15;;
21591;SDS011;10958;50.892;3.992;2022-11-23T15:50:45;4.75;;;2.10;;
21591;SDS011;10958;50.892;3.992;2022-11-23T15:53:14;6.68;;;2.53;;
21591;SDS011;10958;50.892;3.992;2022-11-23T15:55:41;5.82;;;2.83;;
21591;SDS011;10958;50.892;3.992;2022-11-23T15:58:08;6.57;;;3.17;;
21591;SDS011;10958;50.892;3.992;2022-11-23T16:00:42;3.40;;;2.40;;
21591;SDS011;10958;50.892;3.992;2022-11-23T16:03:39;8.60;;;2.70;;
21591;SDS011;10958;50.892;3.992;2022-11-23T16:06:41;6.45;;;2.97;;
21591;SDS011;10958;50.892;3.992;2022-11-23T16:09:34;6.45;;;3.25;;
21591;SDS011;10958;50.892;3.992;2022-11-23T16:12:08;5.25;;;2.85;;
21591;SDS011;10958;50.892;3.992;2022-11-23T16:14:48;8.20;;;3.67;;
21591;SDS011;10958;50.892;3.992;2022-11-23T16:17:24;5.03;;;2.90;;
21591;SDS011;10958;50.892;3.992;2022-11-23T16:19:54;7.63;;;3.75;;
21591;SDS011;10958;50.892;3.992;2022-11-23T16:22:29;7.25;;;3.58;;
21591;SDS011;10958;50.892;3.992;2022-11-23T16:25:14;4.32;;;3.25;;
21591;SDS011;10958;50.892;3.992;2022-11-23T16:28:04;5.30;;;3.05;;
21591;SDS011;10958;50.892;3.992;2022-11-23T16:30:42;7.30;;;4.10;;
21591;SDS011;10958;50.892;3.992;2022-11-23T16:33:15;6.80;;;3.20;;
21591;SDS011;10958;50.892;3.992;2022-11-23T16:35:45;7.50;;;3.00;;
21591;SDS011;10958;50.892;3.992;2022-11-23T16:38:11;10.45;;;3.70;;
21591;SDS011;10958;50.892;3.992;2022-11-23T16:40:40;6.22;;;2.42;;
21591;SDS011;10958;50.892;3.992;2022-11-23T16:43:10;11.77;;;4.20;;
21591;SDS011;10958;50.892;3.992;2022-11-23T16:45:54;9.40;;;3.92;;
21591;SDS011;10958;50.892;3.992;2022-11-23T16:48:46;9.35;;;5.05;;
21591;SDS011;10958;50.892;3.992;2022-11-23T16:51:23;9.43;;;4.32;;
21591;SDS011;10958;50.892;3.992;2022-11-23T16:53:51;11.38;;;4.25;;
21591;SDS011;10958;50.892;3.992;2022-11-23T16:56:27;8.65;;;3.22;;
21591;SDS011;10958;50.892;3.992;2022-11-23T16:58:53;10.85;;;4.38;;
21591;SDS011;10958;50.892;3.992;2022-11-23T17:01:20;7.50;;;4.00;;
21591;SDS011;10958;50.892;3.992;2022-11-23T17:03:57;7.72;;;3.85;;
21591;SDS011;10958;50.892;3.992;2022-11-23T17:06:32;6.22;;;3.03;;
21591;SDS011;10958;50.892;3.992;2022-11-23T17:09:07;6.95;;;3.35;;